Time;durP1;ratioP1;P1;durP2;ratioP2;P2;SDS_P1;SDS_P2;PMS_P1;PMS_P2;Temp;Humidity;BMP_temperature;BMP_pressure;BME280_temperature;BME280_humidity;BME280_pressure;Samples;Min_cycle;Max_cycle;Signal;HPM_P1;HPM_P2
2021/08/09 00:00:24;;;;;;;8.63;2.08;;;20.10;90.30;;;;;;4194278;28;20048;-69
2021/08/09 00:02:27;;;;;;;6.13;1.88;;;20.20;90.00;;;;;;4195301;28;20056;-70
2021/08/09 00:04:30;;;;;;;6.97;1.70;;;20.30;90.00;;;;;;4195157;28;20654;-69
2021/08/09 00:06:33;;;;;;;6.68;1.95;;;20.20;90.00;;;;;;4195069;28;20060;-69
2021/08/09 00:08:36;;;;;;;9.18;1.83;;;20.10;90.20;;;;;;4195441;28;20056;-70
2021/08/09 00:10:40;;;;;;;7.75;2.03;;;20.00;90.20;;;;;;4202519;28;20109;-70
2021/08/09 00:12:43;;;;;;;6.30;1.75;;;20.00;90.20;;;;;;4211757;28;20445;-69
2021/08/09 00:14:46;;;;;;;6.05;2.15;;;20.00;90.10;;;;;;4211666;28;20454;-69
2021/08/09 00:16:49;;;;;;;8.85;2.08;;;20.00;90.20;;;;;;4211778;28;20101;-70
2021/08/09 00:18:52;;;;;;;6.88;1.60;;;20.00;90.20;;;;;;4211618;28;20116;-70
2021/08/09 00:20:57;;;;;;;8.25;2.00;;;19.90;90.20;;;;;;4211588;28;20048;-69
2021/08/09 00:23:00;;;;;;;;;;;19.80;90.30;;;;;;4194820;28;20062;-69
2021/08/09 00:25:03;;;;;;;7.70;1.85;;;19.90;90.30;;;;;;4211516;28;20325;-70
2021/08/09 00:27:07;;;;;;;8.05;1.65;;;20.00;90.40;;;;;;4211794;28;20060;-70
2021/08/09 00:29:10;;;;;;;6.35;1.67;;;19.90;90.30;;;;;;4211630;28;20068;-71
2021/08/09 00:31:13;;;;;;;8.27;1.75;;;20.00;90.20;;;;;;4211427;28;20060;-70
2021/08/09 00:33:16;;;;;;;8.20;1.73;;;20.00;90.40;;;;;;4211439;28;20105;-70
2021/08/09 00:35:19;;;;;;;8.27;2.05;;;20.00;90.20;;;;;;4211672;28;20052;-69
2021/08/09 00:37:22;;;;;;;6.88;1.75;;;20.00;90.00;;;;;;4211606;28;20492;-69
2021/08/09 00:39:25;;;;;;;5.35;1.60;;;19.90;90.10;;;;;;4211452;28;20557;-69
2021/08/09 00:41:27;;;;;;;5.95;1.67;;;19.90;90.30;;;;;;4211600;28;20048;-70
2021/08/09 00:43:32;;;;;;;8.25;1.52;;;19.80;90.50;;;;;;4211568;28;20060;-72
2021/08/09 00:45:35;;;;;;;12.82;2.35;;;19.70;90.70;;;;;;4211556;28;20048;-72
2021/08/09 00:47:38;;;;;;;3.67;1.17;;;19.70;90.80;;;;;;4211527;28;20048;-69
2021/08/09 00:49:41;;;;;;;6.80;2.03;;;19.70;90.80;;;;;;4211532;28;20056;-70
2021/08/09 00:51:44;;;;;;;8.88;1.83;;;19.70;90.70;;;;;;4211188;28;20485;-69
2021/08/09 00:53:47;;;;;;;6.10;1.77;;;19.80;90.80;;;;;;4211810;28;20048;-71
2021/08/09 00:55:52;;;;;;;6.65;2.20;;;19.90;90.70;;;;;;4211587;28;20056;-71
2021/08/09 00:57:55;;;;;;;7.97;1.70;;;19.80;90.70;;;;;;4211352;28;20052;-71
2021/08/09 01:00:01;;;;;;;5.63;1.65;;;19.70;90.70;;;;;;4211561;28;20056;-71
2021/08/09 01:02:04;;;;;;;5.55;1.77;;;19.70;91.00;;;;;;4211895;28;20052;-70
2021/08/09 01:04:08;;;;;;;8.25;1.70;;;19.50;91.10;;;;;;4211340;28;20056;-71
2021/08/09 01:06:12;;;;;;;8.13;1.92;;;19.70;91.20;;;;;;4211512;28;20060;-71
2021/08/09 01:08:24;;;;;;;6.95;1.88;;;19.70;91.20;;;;;;4211422;28;20044;-71
2021/08/09 01:10:32;;;;;;;10.25;1.90;;;19.60;91.20;;;;;;4211607;28;20545;-71
2021/08/09 01:12:39;;;;;;;13.98;1.80;;;19.60;91.30;;;;;;4214330;28;20118;-71
2021/08/09 01:14:57;;;;;;;8.38;1.83;;;19.70;91.10;;;;;;4214379;28;20109;-71
2021/08/09 01:17:05;;;;;;;4.63;1.58;;;19.80;90.90;;;;;;4214339;28;20052;-71
2021/08/09 01:19:17;;;;;;;10.35;2.17;;;19.90;90.90;;;;;;4214065;28;20056;-71
2021/08/09 01:21:21;;;;;;;6.82;2.20;;;19.70;91.20;;;;;;4214134;28;20122;-71
2021/08/09 01:23:47;;;;;;;7.70;1.80;;;19.70;91.20;;;;;;4214208;28;20044;-71
2021/08/09 01:25:51;;;;;;;;;;;19.60;91.60;;;;;;4214826;28;20052;-71
2021/08/09 01:27:58;;;;;;;8.57;1.90;;;19.60;91.40;;;;;;4214275;28;19920;-71
2021/08/09 01:30:05;;;;;;;5.18;1.80;;;19.50;91.50;;;;;;4214227;28;20056;-71
2021/08/09 01:32:09;;;;;;;6.30;2.00;;;19.60;91.30;;;;;;4214021;28;20052;-71
2021/08/09 01:34:14;;;;;;;7.25;1.70;;;19.60;91.40;;;;;;4214096;28;20121;-71
2021/08/09 01:36:18;;;;;;;6.28;1.70;;;19.60;91.40;;;;;;4213962;28;20052;-71
2021/08/09 01:38:24;;;;;;;7.90;2.28;;;19.60;91.40;;;;;;4214060;28;20101;-71
2021/08/09 01:40:28;;;;;;;11.02;1.98;;;19.50;91.30;;;;;;4213987;28;20056;-71
2021/08/09 01:42:31;;;;;;;7.60;1.92;;;19.50;91.50;;;;;;4214164;28;20129;-71
2021/08/09 01:44:36;;;;;;;9.02;2.40;;;19.40;91.60;;;;;;4214063;28;20055;-71
2021/08/09 01:46:39;;;;;;;8.60;2.10;;;19.40;91.70;;;;;;4198688;28;20101;-69
2021/08/09 01:48:43;;;;;;;8.82;1.88;;;19.40;91.70;;;;;;4179516;28;20555;-71
2021/08/09 01:50:47;;;;;;;6.80;1.73;;;19.50;91.70;;;;;;4196966;28;20490;-69
2021/08/09 01:52:51;;;;;;;5.82;1.48;;;19.50;91.60;;;;;;4197328;28;20505;-70
2021/08/09 01:54:54;;;;;;;5.43;1.73;;;19.50;91.50;;;;;;4197179;28;20044;-71
2021/08/09 01:56:58;;;;;;;12.55;2.50;;;19.60;91.40;;;;;;4197082;28;20059;-69
2021/08/09 01:59:01;;;;;;;6.47;1.92;;;19.50;91.40;;;;;;4196991;28;20052;-70
2021/08/09 02:01:06;;;;;;;8.38;2.28;;;19.60;91.30;;;;;;4196926;28;20057;-69
2021/08/09 02:03:09;;;;;;;11.68;2.50;;;19.60;91.30;;;;;;4196927;28;20106;-71
2021/08/09 02:05:14;;;;;;;6.65;2.00;;;19.60;91.30;;;;;;4196890;28;20121;-72
2021/08/09 02:07:17;;;;;;;;;;;19.60;91.40;;;;;;4179821;28;20053;-72
2021/08/09 02:09:20;;;;;;;8.38;1.65;;;19.50;91.40;;;;;;4196941;28;19921;-70
2021/08/09 02:11:29;;;;;;;7.57;1.90;;;19.50;91.50;;;;;;4192416;28;20101;-70
2021/08/09 02:13:37;;;;;;;9.57;2.10;;;19.50;91.70;;;;;;4213511;28;20048;-70
2021/08/09 02:15:48;;;;;;;6.10;1.70;;;19.40;91.70;;;;;;4213189;28;20102;-70
2021/08/09 02:18:01;;;;;;;4.50;2.08;;;19.30;92.00;;;;;;4214218;28;20121;-70
2021/08/09 02:20:11;;;;;;;7.60;1.80;;;19.20;92.20;;;;;;4195706;28;20097;-70
2021/08/09 02:22:32;;;;;;;;;;;19.30;92.20;;;;;;4213164;28;20056;-71
2021/08/09 02:24:41;;;;;;;5.57;1.90;;;19.20;92.20;;;;;;4213345;28;20010;-72
2021/08/09 02:26:48;;;;;;;9.80;2.20;;;19.30;92.20;;;;;;4213313;28;20044;-70
2021/08/09 02:28:53;;;;;;;5.47;1.63;;;19.20;92.40;;;;;;4213190;28;20082;-72
2021/08/09 02:30:57;;;;;;;;;;;19.30;92.10;;;;;;4213770;28;20048;-69
2021/08/09 02:33:03;;;;;;;7.40;1.80;;;19.20;92.50;;;;;;4213219;28;19986;-70
2021/08/09 02:35:07;;;;;;;8.10;1.80;;;19.20;92.60;;;;;;4213348;28;20048;-70
2021/08/09 02:37:11;;;;;;;8.57;2.08;;;19.10;92.40;;;;;;4213452;28;20051;-70
2021/08/09 02:39:15;;;;;;;10.30;2.50;;;19.20;92.70;;;;;;4213070;28;20117;-70
2021/08/09 02:41:19;;;;;;;8.85;2.50;;;19.20;92.80;;;;;;4212979;28;20048;-70
2021/08/09 02:43:23;;;;;;;9.20;2.17;;;19.10;92.70;;;;;;4213128;28;20553;-70
2021/08/09 02:45:26;;;;;;;7.80;2.03;;;19.00;93.00;;;;;;4212824;28;20109;-70
2021/08/09 02:47:33;;;;;;;11.15;2.65;;;19.00;92.90;;;;;;4213009;28;20516;-70
2021/08/09 02:49:41;;;;;;;9.80;2.20;;;19.00;93.00;;;;;;4212754;28;20114;-70
2021/08/09 02:51:45;;;;;;;9.38;2.00;;;19.00;93.10;;;;;;4194563;28;20060;-70
2021/08/09 02:53:49;;;;;;;11.30;2.22;;;18.90;93.50;;;;;;4212772;28;20113;-71
2021/08/09 02:55:56;;;;;;;11.87;2.30;;;18.90;93.20;;;;;;4212909;28;20056;-70
2021/08/09 02:58:06;;;;;;;7.38;2.67;;;18.90;93.50;;;;;;4213117;28;20506;-70
2021/08/09 03:00:10;;;;;;;9.25;2.15;;;18.80;93.80;;;;;;4212574;28;20074;-70
2021/08/09 03:02:15;;;;;;;10.35;1.90;;;18.80;93.80;;;;;;4212589;28;20051;-70
2021/08/09 03:04:22;;;;;;;12.68;2.15;;;18.80;93.80;;;;;;4212351;28;20052;-70
2021/08/09 03:06:27;;;;;;;8.25;2.03;;;18.80;93.90;;;;;;4212601;28;20086;-71
2021/08/09 03:08:30;;;;;;;12.18;2.05;;;18.80;94.00;;;;;;4212345;28;20060;-70
2021/08/09 03:10:33;;;;;;;9.15;2.42;;;18.70;94.10;;;;;;4211145;28;20105;-69
2021/08/09 03:12:37;;;;;;;13.75;2.65;;;18.80;94.00;;;;;;4212388;28;20056;-71
2021/08/09 03:14:40;;;;;;;10.75;2.63;;;18.70;94.20;;;;;;4212350;28;20052;-69
2021/08/09 03:16:43;;;;;;;12.30;2.47;;;18.70;94.10;;;;;;4212351;28;20040;-69
2021/08/09 03:18:46;;;;;;;10.80;2.20;;;18.80;94.10;;;;;;4212452;28;20049;-70
2021/08/09 03:20:48;;;;;;;11.15;2.13;;;18.70;94.20;;;;;;4212415;28;20047;-70
2021/08/09 03:22:53;;;;;;;9.73;2.78;;;18.80;94.10;;;;;;4212472;28;20113;-71
2021/08/09 03:24:56;;;;;;;8.43;2.40;;;18.70;94.30;;;;;;4212465;28;20044;-70
2021/08/09 03:26:59;;;;;;;5.93;1.90;;;18.80;94.00;;;;;;4212290;28;20484;-71
2021/08/09 03:29:02;;;;;;;11.30;2.40;;;18.80;94.00;;;;;;4212383;28;20048;-70
2021/08/09 03:31:05;;;;;;;9.52;2.40;;;18.80;94.20;;;;;;4212264;28;20137;-70
2021/08/09 03:33:08;;;;;;;9.45;2.20;;;18.60;94.70;;;;;;4194409;28;20589;-71
2021/08/09 03:35:11;;;;;;;10.48;2.15;;;18.70;94.50;;;;;;4212376;28;20048;-71
2021/08/09 03:37:14;;;;;;;8.60;2.00;;;18.60;94.70;;;;;;4212367;28;20068;-70
2021/08/09 03:39:19;;;;;;;8.50;2.30;;;18.60;94.90;;;;;;4212040;28;20052;-71
2021/08/09 03:41:22;;;;;;;7.78;2.08;;;18.70;94.70;;;;;;4212165;28;20150;-71
2021/08/09 03:43:24;;;;;;;13.00;1.95;;;18.60;94.60;;;;;;4212337;28;20120;-71
2021/08/09 03:45:28;;;;;;;10.02;2.60;;;18.60;94.80;;;;;;4207251;28;20048;-71
2021/08/09 03:47:30;;;;;;;9.25;2.13;;;18.60;94.80;;;;;;4195660;28;20052;-71
2021/08/09 03:49:33;;;;;;;10.82;2.22;;;18.60;94.80;;;;;;4195795;28;20055;-71
2021/08/09 03:51:37;;;;;;;6.65;2.17;;;18.60;94.80;;;;;;4195283;28;20082;-71
2021/08/09 03:53:40;;;;;;;9.93;2.35;;;18.50;95.00;;;;;;4195554;28;20053;-70
2021/08/09 03:55:44;;;;;;;12.10;2.58;;;18.50;95.10;;;;;;4177593;28;20110;-71
2021/08/09 03:57:48;;;;;;;7.97;2.20;;;18.50;95.00;;;;;;4195604;28;20056;-71
2021/08/09 03:59:50;;;;;;;11.85;2.38;;;18.50;95.20;;;;;;4195420;28;20053;-71
2021/08/09 04:01:53;;;;;;;11.68;2.60;;;18.40;95.50;;;;;;4195387;28;20052;-71
2021/08/09 04:03:56;;;;;;;10.65;2.28;;;18.50;95.30;;;;;;4195274;28;20044;-70
2021/08/09 04:05:59;;;;;;;9.93;2.33;;;18.50;95.30;;;;;;4195011;28;20465;-70
2021/08/09 04:08:02;;;;;;;12.25;2.30;;;18.50;94.90;;;;;;4195134;28;20117;-71
2021/08/09 04:10:07;;;;;;;11.80;2.50;;;18.60;95.30;;;;;;4198289;28;20044;-70
2021/08/09 04:12:11;;;;;;;14.93;2.80;;;18.70;94.80;;;;;;4211849;28;20105;-71
2021/08/09 04:14:14;;;;;;;9.00;2.35;;;18.70;94.80;;;;;;4211676;28;20260;-71
2021/08/09 04:16:17;;;;;;;11.93;2.92;;;18.70;94.70;;;;;;4211976;28;20063;-71
2021/08/09 04:18:20;;;;;;;9.43;2.33;;;18.60;94.90;;;;;;4211914;28;20125;-71
2021/08/09 04:20:23;;;;;;;11.35;2.55;;;18.60;95.00;;;;;;4211705;28;20082;-71
2021/08/09 04:22:26;;;;;;;12.43;2.58;;;18.60;95.10;;;;;;4211796;28;20102;-71
2021/08/09 04:24:29;;;;;;;10.50;3.00;;;18.60;95.10;;;;;;4211776;28;20097;-71
2021/08/09 04:26:32;;;;;;;10.40;2.63;;;18.70;94.70;;;;;;4193956;28;20044;-72
2021/08/09 04:28:36;;;;;;;14.77;2.83;;;18.70;94.90;;;;;;4211551;28;20466;-71
2021/08/09 04:30:39;;;;;;;12.82;2.50;;;18.60;94.90;;;;;;4211696;28;20140;-70
2021/08/09 04:32:43;;;;;;;15.07;2.75;;;18.70;94.70;;;;;;4211626;28;20052;-71
2021/08/09 04:34:46;;;;;;;9.07;2.38;;;18.70;95.00;;;;;;4211778;28;20048;-71
2021/08/09 04:36:49;;;;;;;9.05;2.65;;;18.60;95.20;;;;;;4211589;28;20044;-71
2021/08/09 04:38:52;;;;;;;7.97;2.63;;;18.70;94.90;;;;;;4211640;28;20040;-71
2021/08/09 04:40:55;;;;;;;7.88;2.55;;;18.60;95.20;;;;;;4211509;28;20052;-71
2021/08/09 04:42:58;;;;;;;14.20;2.50;;;18.50;95.40;;;;;;4211470;28;20117;-70
2021/08/09 04:45:02;;;;;;;9.38;2.40;;;18.60;95.20;;;;;;4211305;28;20078;-70
2021/08/09 04:47:05;;;;;;;13.57;2.72;;;18.60;95.40;;;;;;4214629;28;20056;-70
2021/08/09 04:49:08;;;;;;;10.75;2.78;;;18.50;95.50;;;;;;4214725;28;20079;-70
2021/08/09 04:51:13;;;;;;;10.27;3.22;;;18.50;95.50;;;;;;4214532;28;20086;-70
2021/08/09 04:53:16;;;;;;;8.40;2.88;;;18.50;95.40;;;;;;4214594;28;20064;-70
2021/08/09 04:55:19;;;;;;;10.52;2.78;;;18.60;95.60;;;;;;4214859;28;20059;-70
2021/08/09 04:57:21;;;;;;;13.00;2.42;;;18.60;95.80;;;;;;4214639;28;20109;-69
2021/08/09 04:59:24;;;;;;;15.68;2.80;;;18.60;95.60;;;;;;4213275;28;20381;-70
2021/08/09 05:01:29;;;;;;;13.80;2.78;;;18.60;95.60;;;;;;4214505;28;20488;-70
2021/08/09 05:03:36;;;;;;;6.38;2.65;;;18.40;96.20;;;;;;4213396;28;20638;-70
2021/08/09 05:05:42;;;;;;;10.25;2.40;;;18.40;96.20;;;;;;4214558;28;20085;-70
2021/08/09 05:07:45;;;;;;;9.25;2.47;;;18.50;96.10;;;;;;4214361;28;20085;-70
2021/08/09 05:09:49;;;;;;;10.60;2.55;;;18.50;96.10;;;;;;4213220;28;20478;-70
2021/08/09 05:11:52;;;;;;;9.13;2.50;;;18.40;96.30;;;;;;4214403;28;20048;-70
2021/08/09 05:13:56;;;;;;;11.55;2.67;;;18.30;96.50;;;;;;4196391;28;20098;-70
2021/08/09 05:16:04;;;;;;;12.30;2.60;;;18.30;96.80;;;;;;4214119;28;20052;-70
2021/08/09 05:18:12;;;;;;;12.30;2.90;;;18.10;96.90;;;;;;4214286;28;20117;-70
2021/08/09 05:20:15;;;;;;;11.48;2.60;;;18.20;97.10;;;;;;4214130;28;20109;-71
2021/08/09 05:22:18;;;;;;;14.52;3.05;;;18.30;97.10;;;;;;4214511;28;20113;-72
2021/08/09 05:24:20;;;;;;;10.43;2.33;;;18.40;96.60;;;;;;4214355;28;20052;-69
2021/08/09 05:26:23;;;;;;;8.18;2.55;;;18.50;96.60;;;;;;4196348;28;20057;-70
2021/08/09 05:28:26;;;;;;;10.75;2.80;;;18.40;96.60;;;;;;4196151;28;20052;-73
2021/08/09 05:30:29;;;;;;;9.20;2.63;;;18.50;96.60;;;;;;4214279;28;20499;-70
2021/08/09 05:32:34;;;;;;;7.28;2.55;;;18.60;96.20;;;;;;4214350;28;20117;-69
2021/08/09 05:34:41;;;;;;;12.80;2.90;;;18.70;96.10;;;;;;4196294;28;20086;-71
2021/08/09 05:36:44;;;;;;;12.90;2.55;;;18.70;96.10;;;;;;4214078;28;20696;-72
2021/08/09 05:38:47;;;;;;;11.95;2.63;;;18.70;96.30;;;;;;4214188;28;20052;-69
2021/08/09 05:40:50;;;;;;;13.27;3.30;;;18.60;96.60;;;;;;4214046;28;20052;-70
2021/08/09 05:42:53;;;;;;;13.98;2.85;;;18.60;96.70;;;;;;4214170;28;20048;-70
2021/08/09 05:44:56;;;;;;;9.10;2.53;;;18.70;96.40;;;;;;4213217;28;20121;-69
2021/08/09 05:46:59;;;;;;;12.93;2.63;;;18.70;96.60;;;;;;4197238;28;20060;-72
2021/08/09 05:49:04;;;;;;;18.20;3.35;;;18.70;96.50;;;;;;4197123;28;20049;-70
2021/08/09 05:51:08;;;;;;;;;;;18.70;96.60;;;;;;4197651;28;20500;-69
2021/08/09 05:53:11;;;;;;;12.95;2.80;;;18.70;96.50;;;;;;4196954;28;19981;-69
2021/08/09 05:55:14;;;;;;;15.50;2.70;;;18.70;96.70;;;;;;4197044;28;20064;-70
2021/08/09 05:57:17;;;;;;;13.68;3.03;;;18.70;96.70;;;;;;4196834;28;20064;-71
2021/08/09 05:59:20;;;;;;;12.90;3.30;;;18.60;97.00;;;;;;4197332;28;20106;-70
2021/08/09 06:01:23;;;;;;;12.40;2.83;;;18.70;96.90;;;;;;4197069;28;20521;-71
2021/08/09 06:03:26;;;;;;;11.32;3.20;;;18.70;96.90;;;;;;4197130;28;20048;-69
2021/08/09 06:05:29;;;;;;;11.30;2.63;;;18.70;96.90;;;;;;4196806;28;20460;-71
2021/08/09 06:07:33;;;;;;;13.07;3.15;;;18.70;96.80;;;;;;4196885;28;20048;-72
2021/08/09 06:09:38;;;;;;;11.20;2.42;;;18.80;96.60;;;;;;4197143;28;20052;-72
2021/08/09 06:11:42;;;;;;;13.88;2.70;;;18.80;96.60;;;;;;4212760;28;20477;-72
2021/08/09 06:13:45;;;;;;;18.80;2.85;;;18.90;96.50;;;;;;4213673;28;20043;-72
2021/08/09 06:15:48;;;;;;;14.85;2.95;;;18.90;96.60;;;;;;4213148;28;20051;-71
2021/08/09 06:17:51;;;;;;;15.98;3.20;;;18.90;96.60;;;;;;4213630;28;20699;-71
2021/08/09 06:19:55;;;;;;;9.93;2.83;;;18.70;97.10;;;;;;4213413;28;20558;-69
2021/08/09 06:21:58;;;;;;;14.73;3.05;;;18.80;97.20;;;;;;4213365;28;20110;-69
2021/08/09 06:24:02;;;;;;;16.48;2.85;;;18.80;97.00;;;;;;4213365;28;20052;-69
2021/08/09 06:26:05;;;;;;;13.35;3.22;;;19.00;96.70;;;;;;4213555;28;20122;-69
2021/08/09 06:28:08;;;;;;;15.40;3.10;;;19.00;96.80;;;;;;4213112;28;20610;-69
2021/08/09 06:30:12;;;;;;;16.17;3.10;;;19.00;96.70;;;;;;4213335;28;20055;-70
2021/08/09 06:32:15;;;;;;;11.60;2.80;;;19.00;96.70;;;;;;4212984;28;20121;-69
2021/08/09 06:34:18;;;;;;;13.30;2.90;;;18.90;96.90;;;;;;4213110;28;20048;-69
2021/08/09 06:36:21;;;;;;;11.98;2.75;;;18.80;97.20;;;;;;4213162;28;20466;-69
2021/08/09 06:38:24;;;;;;;13.80;3.08;;;19.00;96.90;;;;;;4212869;28;20114;-69
2021/08/09 06:40:28;;;;;;;13.90;3.10;;;19.10;96.70;;;;;;4212781;28;20051;-69
2021/08/09 06:42:31;;;;;;;11.52;3.30;;;19.10;96.60;;;;;;4212998;28;20060;-71
2021/08/09 06:44:34;;;;;;;11.95;2.85;;;19.10;96.70;;;;;;4195465;28;20061;-71
2021/08/09 06:46:37;;;;;;;13.45;3.17;;;19.10;96.70;;;;;;4212917;28;20105;-71
2021/08/09 06:48:40;;;;;;;13.63;2.92;;;19.10;96.90;;;;;;4213044;28;20101;-71
2021/08/09 06:50:43;;;;;;;15.75;3.75;;;19.10;96.90;;;;;;4212876;28;20372;-71
2021/08/09 06:52:46;;;;;;;11.38;2.60;;;19.20;97.00;;;;;;4212881;28;20462;-71
2021/08/09 06:54:49;;;;;;;11.77;2.88;;;19.10;97.20;;;;;;4212565;28;20052;-71
2021/08/09 06:56:53;;;;;;;10.90;2.90;;;19.10;97.30;;;;;;4212814;28;20109;-71
2021/08/09 06:58:56;;;;;;;12.07;3.15;;;19.00;97.80;;;;;;4212974;28;20101;-71
2021/08/09 07:00:59;;;;;;;9.55;2.97;;;19.10;97.90;;;;;;4212426;28;20132;-71
2021/08/09 07:03:06;;;;;;;12.80;2.80;;;19.10;97.80;;;;;;4212601;28;20586;-69
2021/08/09 07:05:09;;;;;;;14.32;3.50;;;19.20;97.50;;;;;;4212658;28;20048;-69
2021/08/09 07:07:12;;;;;;;13.05;3.17;;;19.30;97.60;;;;;;4212645;28;20130;-71
2021/08/09 07:09:15;;;;;;;12.07;3.08;;;19.30;97.90;;;;;;4211997;28;20470;-71
2021/08/09 07:11:18;;;;;;;16.17;4.07;;;19.40;97.80;;;;;;4212482;28;20110;-71
2021/08/09 07:13:23;;;;;;;11.60;3.40;;;19.40;98.00;;;;;;4212722;28;20052;-70
2021/08/09 07:15:25;;;;;;;16.58;3.88;;;19.40;97.70;;;;;;4212416;28;20496;-70
2021/08/09 07:17:28;;;;;;;13.50;3.50;;;19.50;97.60;;;;;;4212480;28;20067;-69
2021/08/09 07:19:32;;;;;;;16.02;3.33;;;19.30;98.10;;;;;;4212367;28;20048;-71
2021/08/09 07:21:34;;;;;;;15.98;3.67;;;19.40;98.10;;;;;;4212698;28;20089;-71
2021/08/09 07:23:38;;;;;;;17.67;3.70;;;19.50;98.20;;;;;;4212280;28;20116;-70
2021/08/09 07:25:41;;;;;;;19.65;3.50;;;19.40;98.50;;;;;;4212296;28;20424;-71
2021/08/09 07:27:44;;;;;;;13.82;3.40;;;19.50;98.40;;;;;;4212638;28;20112;-70
2021/08/09 07:29:49;;;;;;;17.70;4.22;;;19.50;98.50;;;;;;4212674;28;20114;-71
2021/08/09 07:31:57;;;;;;;15.95;3.30;;;19.50;98.80;;;;;;4212568;28;20500;-71
2021/08/09 07:34:00;;;;;;;12.68;3.38;;;19.50;98.50;;;;;;4212315;28;20052;-71
2021/08/09 07:36:05;;;;;;;18.58;3.50;;;19.50;98.50;;;;;;4212003;28;20113;-71
2021/08/09 07:38:07;;;;;;;;;;;19.50;98.80;;;;;;4212959;28;20048;-71
2021/08/09 07:40:12;;;;;;;14.13;3.50;;;19.50;98.90;;;;;;4212688;28;20001;-71
2021/08/09 07:42:15;;;;;;;15.95;4.18;;;19.50;98.90;;;;;;4212028;28;20059;-70
2021/08/09 07:44:27;;;;;;;20.55;4.03;;;19.60;98.80;;;;;;4212213;28;20048;-72
2021/08/09 07:46:31;;;;;;;16.48;3.42;;;19.70;98.90;;;;;;4198522;28;20052;-70
2021/08/09 07:48:34;;;;;;;13.40;3.75;;;19.70;98.90;;;;;;4195669;28;20056;-71
2021/08/09 07:50:39;;;;;;;14.48;3.35;;;19.60;99.00;;;;;;4195325;28;20056;-68
2021/08/09 07:52:42;;;;;;;11.23;4.03;;;19.70;99.20;;;;;;4195104;28;20061;-69
2021/08/09 07:54:45;;;;;;;15.60;3.72;;;19.90;98.50;;;;;;4195109;28;20475;-69
2021/08/09 07:56:48;;;;;;;14.48;3.38;;;19.80;99.10;;;;;;4195385;28;20056;-70
2021/08/09 07:58:51;;;;;;;15.35;3.53;;;19.80;98.70;;;;;;4195246;28;20041;-69
2021/08/09 08:00:54;;;;;;;8.77;3.08;;;19.80;98.70;;;;;;4195122;28;20110;-69
2021/08/09 08:02:59;;;;;;;14.38;3.38;;;19.60;98.70;;;;;;4195326;28;20550;-70
2021/08/09 08:05:02;;;;;;;12.55;3.30;;;19.60;99.20;;;;;;4177701;28;20060;-69
2021/08/09 08:07:05;;;;;;;14.48;3.10;;;19.80;98.90;;;;;;4195268;28;20057;-68
2021/08/09 08:09:08;;;;;;;12.27;3.58;;;20.00;98.40;;;;;;4195069;28;20126;-69
2021/08/09 08:11:11;;;;;;;11.15;4.03;;;20.10;98.70;;;;;;4206988;28;20061;-69
2021/08/09 08:13:14;;;;;;;14.60;3.67;;;20.10;98.40;;;;;;4211850;28;20052;-69
2021/08/09 08:15:17;;;;;;;12.70;3.78;;;20.20;98.60;;;;;;4211699;28;20113;-69
2021/08/09 08:17:22;;;;;;;13.45;3.83;;;20.00;98.70;;;;;;4211793;28;20052;-69
2021/08/09 08:19:27;;;;;;;16.30;3.97;;;19.90;98.80;;;;;;4211895;28;20048;-70
2021/08/09 08:21:30;;;;;;;14.63;3.60;;;20.00;98.70;;;;;;4214000;28;20121;-70
2021/08/09 08:23:33;;;;;;;15.95;3.38;;;20.10;98.70;;;;;;4215206;28;20055;-69
2021/08/09 08:25:36;;;;;;;14.52;3.70;;;20.10;98.70;;;;;;4215490;28;20056;-69
2021/08/09 08:27:39;;;;;;;15.35;3.85;;;20.10;98.60;;;;;;4215131;28;20553;-70
2021/08/09 08:29:42;;;;;;;10.43;3.35;;;20.20;98.40;;;;;;4215032;28;20105;-69
2021/08/09 08:31:45;;;;;;;11.23;3.92;;;20.20;98.30;;;;;;4197233;28;20050;-70
2021/08/09 08:33:48;;;;;;;14.20;3.83;;;20.10;98.30;;;;;;4215055;28;20511;-68
2021/08/09 08:35:52;;;;;;;12.07;3.75;;;20.10;98.40;;;;;;4214781;28;20727;-68
2021/08/09 08:37:55;;;;;;;14.68;3.88;;;20.30;98.40;;;;;;4215173;28;20044;-69
2021/08/09 08:39:58;;;;;;;15.20;3.97;;;20.30;98.40;;;;;;4215078;28;20557;-69
2021/08/09 08:42:01;;;;;;;14.90;4.13;;;20.30;98.30;;;;;;4215237;28;20048;-69
2021/08/09 08:44:05;;;;;;;15.35;3.92;;;20.00;98.10;;;;;;4215101;28;20565;-69
2021/08/09 08:46:08;;;;;;;14.00;3.03;;;20.00;98.80;;;;;;4214962;28;20056;-69
2021/08/09 08:48:11;;;;;;;16.25;4.00;;;20.00;98.80;;;;;;4214742;28;20576;-69
2021/08/09 08:50:34;;;;;;;13.43;3.70;;;20.20;98.50;;;;;;4214544;28;20094;-70
2021/08/09 08:52:42;;;;;;;12.75;3.22;;;20.30;98.50;;;;;;4214947;28;20618;-69
2021/08/09 08:54:45;;;;;;;13.30;3.78;;;20.50;98.40;;;;;;4214857;28;20048;-69
2021/08/09 08:56:48;;;;;;;12.77;3.08;;;20.70;98.00;;;;;;4214665;28;20121;-69
2021/08/09 08:58:55;;;;;;;13.05;3.67;;;20.80;98.00;;;;;;4213629;28;20051;-69
2021/08/09 09:00:58;;;;;;;12.63;2.95;;;20.80;97.80;;;;;;4214472;28;20052;-69
2021/08/09 09:03:05;;;;;;;9.48;3.42;;;20.90;97.90;;;;;;4214541;28;20454;-69
2021/08/09 09:05:12;;;;;;;13.55;3.60;;;21.20;97.70;;;;;;4214648;28;20106;-69
2021/08/09 09:07:15;;;;;;;14.52;3.38;;;21.10;97.20;;;;;;4214641;28;20056;-69
2021/08/09 09:09:23;;;;;;;9.60;3.03;;;21.10;97.00;;;;;;4214509;28;20109;-69
2021/08/09 09:11:37;;;;;;;10.35;3.40;;;21.20;97.00;;;;;;4214546;28;20056;-68
2021/08/09 09:13:54;;;;;;;14.32;3.22;;;21.10;96.70;;;;;;4214454;28;20056;-69
2021/08/09 09:16:00;;;;;;;12.75;3.30;;;21.10;97.20;;;;;;4195339;28;20056;-70
2021/08/09 09:18:03;;;;;;;13.55;2.95;;;21.10;96.90;;;;;;4213761;28;20052;-70
2021/08/09 09:20:26;;;;;;;10.93;3.13;;;21.10;97.10;;;;;;4213340;28;20129;-69
2021/08/09 09:22:31;;;;;;;11.98;3.22;;;21.30;97.00;;;;;;4213306;28;20052;-69
2021/08/09 09:24:47;;;;;;;13.88;3.78;;;21.20;96.30;;;;;;4213341;28;20573;-69
2021/08/09 09:26:54;;;;;;;8.82;2.97;;;21.20;96.50;;;;;;4213207;28;20627;-69
2021/08/09 09:29:05;;;;;;;9.60;2.90;;;21.30;96.50;;;;;;4213172;28;20052;-68
2021/08/09 09:31:13;;;;;;;11.10;3.50;;;21.30;96.50;;;;;;4212805;28;20054;-68
2021/08/09 09:33:17;;;;;;;15.48;3.53;;;21.50;96.20;;;;;;4213049;28;20441;-68
2021/08/09 09:35:21;;;;;;;16.08;3.33;;;21.30;95.80;;;;;;4213363;28;20052;-68
2021/08/09 09:37:26;;;;;;;9.52;3.15;;;21.20;95.70;;;;;;4213083;28;20128;-70
2021/08/09 09:39:36;;;;;;;11.93;3.28;;;21.40;95.90;;;;;;4213381;28;20052;-71
2021/08/09 09:41:50;;;;;;;9.82;3.00;;;21.40;95.40;;;;;;4213228;28;20492;-71
2021/08/09 09:43:53;;;;;;;12.20;2.80;;;21.50;94.90;;;;;;4213121;28;20117;-71
2021/08/09 09:45:58;;;;;;;13.20;2.72;;;21.70;94.90;;;;;;4203786;28;20398;-71
2021/08/09 09:48:03;;;;;;;11.10;3.13;;;21.90;95.20;;;;;;4196328;28;20053;-72
2021/08/09 09:50:21;;;;;;;;;;;22.10;94.70;;;;;;4196936;28;20117;-71
2021/08/09 09:52:32;;;;;;;9.13;2.72;;;22.00;94.40;;;;;;4196370;28;20492;-71
2021/08/09 09:54:36;;;;;;;9.07;2.83;;;22.00;93.90;;;;;;4196154;28;20049;-69
2021/08/09 09:56:43;;;;;;;9.60;2.38;;;22.00;93.80;;;;;;4196372;28;20060;-70
2021/08/09 09:58:47;;;;;;;8.40;2.90;;;21.80;94.20;;;;;;4196421;28;20528;-71
2021/08/09 10:00:52;;;;;;;12.45;2.97;;;21.80;94.40;;;;;;4196092;28;20056;-70
2021/08/09 10:02:55;;;;;;;9.27;2.00;;;22.00;94.10;;;;;;4196098;28;20113;-71
2021/08/09 10:04:57;;;;;;;8.95;2.47;;;22.10;94.40;;;;;;4178447;28;20057;-69
2021/08/09 10:07:01;;;;;;;7.55;2.85;;;22.00;93.50;;;;;;4196239;28;20590;-71
2021/08/09 10:09:06;;;;;;;9.38;2.85;;;22.00;94.00;;;;;;4196065;28;20099;-69
2021/08/09 10:11:11;;;;;;;8.07;2.60;;;22.00;93.70;;;;;;4207617;28;20052;-71
2021/08/09 10:13:17;;;;;;;11.18;2.88;;;22.10;93.80;;;;;;4212915;28;20040;-69
2021/08/09 10:15:20;;;;;;;9.60;2.72;;;22.30;93.70;;;;;;4194936;28;20102;-69
2021/08/09 10:17:25;;;;;;;7.68;2.80;;;22.40;92.90;;;;;;4195568;28;20052;-69
2021/08/09 10:19:28;;;;;;;11.63;2.83;;;22.20;92.90;;;;;;4213588;28;20105;-70
2021/08/09 10:21:32;;;;;;;10.25;2.95;;;22.00;93.30;;;;;;4213135;28;20470;-70
2021/08/09 10:23:41;;;;;;;12.00;3.00;;;21.90;93.30;;;;;;4213336;28;20056;-70
2021/08/09 10:25:48;;;;;;;9.75;3.05;;;21.90;93.50;;;;;;4213222;28;20067;-69
2021/08/09 10:27:57;;;;;;;10.52;2.97;;;21.80;93.60;;;;;;4213434;28;20082;-68
2021/08/09 10:30:14;;;;;;;12.70;3.10;;;21.90;93.60;;;;;;4213169;28;20118;-70
2021/08/09 10:32:19;;;;;;;11.85;2.90;;;21.80;93.50;;;;;;4213293;28;20442;-68
2021/08/09 10:34:33;;;;;;;9.52;2.75;;;21.90;93.40;;;;;;4213427;28;20052;-72
2021/08/09 10:37:08;;;;;;;9.07;2.97;;;22.00;93.50;;;;;;4213210;28;20401;-70
2021/08/09 10:39:11;;;;;;;7.68;2.80;;;22.10;93.40;;;;;;4213320;28;20056;-71
2021/08/09 10:41:36;;;;;;;8.95;2.80;;;22.10;93.30;;;;;;4213096;28;20055;-72
2021/08/09 10:44:23;;;;;;;8.85;2.65;;;22.40;92.90;;;;;;4212340;28;20580;-71
2021/08/09 10:46:34;;;;;;;;;;;22.20;92.40;;;;;;4195426;28;20053;-70